sensor_id;sensor_type;location;lat;lon;timestamp;temperature;humidity
12223;DHT22;6174;49.058;8.524;2022-08-02T00:00:28;21.60;91.60
12223;DHT22;6174;49.058;8.524;2022-08-02T00:02:55;21.60;92.00
12223;DHT22;6174;49.058;8.524;2022-08-02T00:05:21;21.60;92.20
12223;DHT22;6174;49.058;8.524;2022-08-02T00:07:50;21.50;92.10
12223;DHT22;6174;49.058;8.524;2022-08-02T00:10:16;21.50;92.50
12223;DHT22;6174;49.058;8.524;2022-08-02T00:12:43;21.50;92.80
12223;DHT22;6174;49.058;8.524;2022-08-02T00:15:10;21.50;92.90
12223;DHT22;6174;49.058;8.524;2022-08-02T00:17:37;21.50;93.00
12223;DHT22;6174;49.058;8.524;2022-08-02T00:20:05;21.50;93.20
12223;DHT22;6174;49.058;8.524;2022-08-02T00:22:32;21.40;93.30
12223;DHT22;6174;49.058;8.524;2022-08-02T00:25:00;21.50;93.40
12223;DHT22;6174;49.058;8.524;2022-08-02T00:27:27;21.40;93.50
12223;DHT22;6174;49.058;8.524;2022-08-02T00:29:54;21.40;93.50
12223;DHT22;6174;49.058;8.524;2022-08-02T00:32:21;21.40;93.50
12223;DHT22;6174;49.058;8.524;2022-08-02T00:34:48;21.40;93.80
12223;DHT22;6174;49.058;8.524;2022-08-02T00:37:15;21.40;94.00
12223;DHT22;6174;49.058;8.524;2022-08-02T00:39:42;21.40;93.80
12223;DHT22;6174;49.058;8.524;2022-08-02T00:42:12;21.30;93.60
12223;DHT22;6174;49.058;8.524;2022-08-02T00:44:39;21.30;93.50
12223;DHT22;6174;49.058;8.524;2022-08-02T00:47:06;21.30;93.60
12223;DHT22;6174;49.058;8.524;2022-08-02T00:49:33;21.30;93.60
12223;DHT22;6174;49.058;8.524;2022-08-02T00:52:00;21.30;93.60
12223;DHT22;6174;49.058;8.524;2022-08-02T00:54:27;21.30;93.70
12223;DHT22;6174;49.058;8.524;2022-08-02T00:56:54;21.20;93.80
12223;DHT22;6174;49.058;8.524;2022-08-02T00:59:22;21.20;94.00
12223;DHT22;6174;49.058;8.524;2022-08-02T01:01:49;21.20;94.00
12223;DHT22;6174;49.058;8.524;2022-08-02T01:04:16;21.20;94.10
12223;DHT22;6174;49.058;8.524;2022-08-02T01:06:43;21.10;94.30
12223;DHT22;6174;49.058;8.524;2022-08-02T01:09:10;21.10;94.70
12223;DHT22;6174;49.058;8.524;2022-08-02T01:11:37;21.10;94.90
12223;DHT22;6174;49.058;8.524;2022-08-02T01:14:06;21.00;95.00
12223;DHT22;6174;49.058;8.524;2022-08-02T01:16:50;21.00;95.30
12223;DHT22;6174;49.058;8.524;2022-08-02T01:19:30;21.00;95.60
12223;DHT22;6174;49.058;8.524;2022-08-02T01:22:11;20.90;96.00
12223;DHT22;6174;49.058;8.524;2022-08-02T01:24:58;20.90;95.90
12223;DHT22;6174;49.058;8.524;2022-08-02T01:27:39;20.90;96.20
12223;DHT22;6174;49.058;8.524;2022-08-02T01:30:10;20.90;96.40
12223;DHT22;6174;49.058;8.524;2022-08-02T01:32:43;21.00;96.30
12223;DHT22;6174;49.058;8.524;2022-08-02T01:35:16;20.90;96.60
12223;DHT22;6174;49.058;8.524;2022-08-02T01:37:50;20.90;96.90
12223;DHT22;6174;49.058;8.524;2022-08-02T01:40:22;20.90;96.80
12223;DHT22;6174;49.058;8.524;2022-08-02T01:42:53;21.00;96.60
12223;DHT22;6174;49.058;8.524;2022-08-02T01:45:24;21.00;96.50
12223;DHT22;6174;49.058;8.524;2022-08-02T01:47:53;21.00;96.80
12223;DHT22;6174;49.058;8.524;2022-08-02T01:50:25;21.00;96.80
12223;DHT22;6174;49.058;8.524;2022-08-02T01:52:57;21.10;96.60
12223;DHT22;6174;49.058;8.524;2022-08-02T01:55:27;21.10;96.40
12223;DHT22;6174;49.058;8.524;2022-08-02T01:57:58;21.10;96.70
12223;DHT22;6174;49.058;8.524;2022-08-02T02:00:30;21.10;96.00
12223;DHT22;6174;49.058;8.524;2022-08-02T02:02:58;21.10;95.60
12223;DHT22;6174;49.058;8.524;2022-08-02T02:05:27;21.10;95.70
12223;DHT22;6174;49.058;8.524;2022-08-02T02:07:56;21.10;95.70
12223;DHT22;6174;49.058;8.524;2022-08-02T02:10:25;21.10;95.70
12223;DHT22;6174;49.058;8.524;2022-08-02T02:12:55;21.00;95.60
12223;DHT22;6174;49.058;8.524;2022-08-02T02:15:24;20.90;96.20
12223;DHT22;6174;49.058;8.524;2022-08-02T02:17:54;20.80;95.90
12223;DHT22;6174;49.058;8.524;2022-08-02T02:20:22;20.80;96.10
12223;DHT22;6174;49.058;8.524;2022-08-02T02:22:49;20.80;96.00
12223;DHT22;6174;49.058;8.524;2022-08-02T02:25:18;20.80;95.80
12223;DHT22;6174;49.058;8.524;2022-08-02T02:27:49;20.70;96.10
12223;DHT22;6174;49.058;8.524;2022-08-02T02:30:18;20.70;96.50
12223;DHT22;6174;49.058;8.524;2022-08-02T02:32:46;20.70;96.70
12223;DHT22;6174;49.058;8.524;2022-08-02T02:35:17;20.60;96.90
12223;DHT22;6174;49.058;8.524;2022-08-02T02:37:47;20.60;97.40
12223;DHT22;6174;49.058;8.524;2022-08-02T02:40:16;20.60;97.50
12223;DHT22;6174;49.058;8.524;2022-08-02T02:42:44;20.60;97.60
12223;DHT22;6174;49.058;8.524;2022-08-02T02:45:12;20.60;97.80
12223;DHT22;6174;49.058;8.524;2022-08-02T02:47:40;20.60;98.10
12223;DHT22;6174;49.058;8.524;2022-08-02T02:50:08;20.60;98.00
12223;DHT22;6174;49.058;8.524;2022-08-02T02:52:37;20.60;98.20
12223;DHT22;6174;49.058;8.524;2022-08-02T02:55:05;20.60;98.30
12223;DHT22;6174;49.058;8.524;2022-08-02T02:57:33;20.50;98.40
12223;DHT22;6174;49.058;8.524;2022-08-02T03:00:03;20.50;98.90
12223;DHT22;6174;49.058;8.524;2022-08-02T03:02:31;20.50;99.00
12223;DHT22;6174;49.058;8.524;2022-08-02T03:04:58;20.50;99.20
12223;DHT22;6174;49.058;8.524;2022-08-02T03:07:27;20.50;98.60
12223;DHT22;6174;49.058;8.524;2022-08-02T03:09:55;20.40;98.80
12223;DHT22;6174;49.058;8.524;2022-08-02T03:12:23;20.40;98.90
12223;DHT22;6174;49.058;8.524;2022-08-02T03:14:50;20.20;99.00
12223;DHT22;6174;49.058;8.524;2022-08-02T03:17:17;20.20;99.10
12223;DHT22;6174;49.058;8.524;2022-08-02T03:19:44;20.10;99.20
12223;DHT22;6174;49.058;8.524;2022-08-02T03:22:10;20.00;99.60
12223;DHT22;6174;49.058;8.524;2022-08-02T03:24:37;20.00;99.90
12223;DHT22;6174;49.058;8.524;2022-08-02T03:27:06;19.90;99.90
12223;DHT22;6174;49.058;8.524;2022-08-02T03:29:32;19.90;99.90
12223;DHT22;6174;49.058;8.524;2022-08-02T03:31:59;19.90;99.90
12223;DHT22;6174;49.058;8.524;2022-08-02T03:34:26;19.80;99.90
12223;DHT22;6174;49.058;8.524;2022-08-02T03:36:54;19.80;99.90
12223;DHT22;6174;49.058;8.524;2022-08-02T03:39:22;19.80;99.90
12223;DHT22;6174;49.058;8.524;2022-08-02T03:41:52;19.80;99.90
12223;DHT22;6174;49.058;8.524;2022-08-02T03:44:21;19.80;99.90
12223;DHT22;6174;49.058;8.524;2022-08-02T03:46:50;19.80;99.90
12223;DHT22;6174;49.058;8.524;2022-08-02T03:49:18;19.80;99.90
12223;DHT22;6174;49.058;8.524;2022-08-02T03:51:46;19.80;99.90
12223;DHT22;6174;49.058;8.524;2022-08-02T03:54:14;19.80;99.90
12223;DHT22;6174;49.058;8.524;2022-08-02T03:56:42;19.80;99.90
12223;DHT22;6174;49.058;8.524;2022-08-02T03:59:11;19.70;99.90
12223;DHT22;6174;49.058;8.524;2022-08-02T04:01:40;19.70;99.90
12223;DHT22;6174;49.058;8.524;2022-08-02T04:04:07;19.70;99.90
12223;DHT22;6174;49.058;8.524;2022-08-02T04:06:34;19.70;99.90
12223;DHT22;6174;49.058;8.524;2022-08-02T04:09:01;19.70;99.90
12223;DHT22;6174;49.058;8.524;2022-08-02T04:11:28;19.70;99.90
12223;DHT22;6174;49.058;8.524;2022-08-02T04:13:58;19.70;99.90
12223;DHT22;6174;49.058;8.524;2022-08-02T04:16:30;19.70;99.90
12223;DHT22;6174;49.058;8.524;2022-08-02T04:19:02;19.60;99.90
12223;DHT22;6174;49.058;8.524;2022-08-02T04:21:33;19.60;99.90
12223;DHT22;6174;49.058;8.524;2022-08-02T04:24:02;19.60;99.90
12223;DHT22;6174;49.058;8.524;2022-08-02T04:26:30;19.60;99.90
12223;DHT22;6174;49.058;8.524;2022-08-02T04:28:58;19.60;99.90
12223;DHT22;6174;49.058;8.524;2022-08-02T04:31:26;19.70;99.90
12223;DHT22;6174;49.058;8.524;2022-08-02T04:33:53;19.70;99.90
12223;DHT22;6174;49.058;8.524;2022-08-02T04:36:21;19.80;99.90
12223;DHT22;6174;49.058;8.524;2022-08-02T04:38:49;19.70;99.90
12223;DHT22;6174;49.058;8.524;2022-08-02T04:41:16;19.80;99.90
12223;DHT22;6174;49.058;8.524;2022-08-02T04:43:42;19.80;99.90
12223;DHT22;6174;49.058;8.524;2022-08-02T04:46:09;19.80;99.90
12223;DHT22;6174;49.058;8.524;2022-08-02T04:48:36;19.80;99.90
12223;DHT22;6174;49.058;8.524;2022-08-02T04:51:03;19.80;99.90
12223;DHT22;6174;49.058;8.524;2022-08-02T04:53:31;19.80;99.90
12223;DHT22;6174;49.058;8.524;2022-08-02T04:55:58;19.80;99.90
12223;DHT22;6174;49.058;8.524;2022-08-02T04:58:25;19.80;99.90
12223;DHT22;6174;49.058;8.524;2022-08-02T05:00:51;19.90;99.90
12223;DHT22;6174;49.058;8.524;2022-08-02T05:03:18;19.90;99.90
12223;DHT22;6174;49.058;8.524;2022-08-02T05:05:45;20.00;99.90
12223;DHT22;6174;49.058;8.524;2022-08-02T05:08:12;20.00;99.90
12223;DHT22;6174;49.058;8.524;2022-08-02T05:10:40;20.10;99.90
12223;DHT22;6174;49.058;8.524;2022-08-02T05:13:07;20.20;99.90
12223;DHT22;6174;49.058;8.524;2022-08-02T05:15:33;20.20;99.90
12223;DHT22;6174;49.058;8.524;2022-08-02T05:18:00;20.20;99.90
12223;DHT22;6174;49.058;8.524;2022-08-02T05:20:27;20.30;99.90
12223;DHT22;6174;49.058;8.524;2022-08-02T05:22:54;20.30;99.90
12223;DHT22;6174;49.058;8.524;2022-08-02T05:25:21;20.30;99.90
12223;DHT22;6174;49.058;8.524;2022-08-02T05:27:49;20.40;99.90
12223;DHT22;6174;49.058;8.524;2022-08-02T05:30:16;20.40;99.90
12223;DHT22;6174;49.058;8.524;2022-08-02T05:32:48;20.50;99.90
12223;DHT22;6174;49.058;8.524;2022-08-02T05:35:17;20.50;99.90
12223;DHT22;6174;49.058;8.524;2022-08-02T05:37:45;20.60;99.90
12223;DHT22;6174;49.058;8.524;2022-08-02T05:40:12;20.70;99.90
12223;DHT22;6174;49.058;8.524;2022-08-02T05:42:39;20.70;99.90
12223;DHT22;6174;49.058;8.524;2022-08-02T05:45:08;20.70;99.90
12223;DHT22;6174;49.058;8.524;2022-08-02T05:47:35;20.80;99.90
12223;DHT22;6174;49.058;8.524;2022-08-02T05:50:03;20.80;99.90
12223;DHT22;6174;49.058;8.524;2022-08-02T05:52:40;20.80;99.90
12223;DHT22;6174;49.058;8.524;2022-08-02T05:55:11;20.80;99.90
12223;DHT22;6174;49.058;8.524;2022-08-02T05:57:47;20.80;99.90
12223;DHT22;6174;49.058;8.524;2022-08-02T06:00:18;20.90;99.90
12223;DHT22;6174;49.058;8.524;2022-08-02T06:03:08;20.90;99.90
12223;DHT22;6174;49.058;8.524;2022-08-02T06:05:48;21.00;99.90
12223;DHT22;6174;49.058;8.524;2022-08-02T06:08:16;21.00;99.90
12223;DHT22;6174;49.058;8.524;2022-08-02T06:10:45;21.10;99.90
12223;DHT22;6174;49.058;8.524;2022-08-02T06:13:14;21.20;99.90
12223;DHT22;6174;49.058;8.524;2022-08-02T06:15:42;21.30;99.90
12223;DHT22;6174;49.058;8.524;2022-08-02T06:18:09;21.30;99.90
12223;DHT22;6174;49.058;8.524;2022-08-02T06:20:36;21.30;98.40
12223;DHT22;6174;49.058;8.524;2022-08-02T06:23:04;21.40;98.40
12223;DHT22;6174;49.058;8.524;2022-08-02T06:25:33;21.40;98.20
12223;DHT22;6174;49.058;8.524;2022-08-02T06:28:01;21.50;97.90
12223;DHT22;6174;49.058;8.524;2022-08-02T06:30:29;21.60;97.80
12223;DHT22;6174;49.058;8.524;2022-08-02T06:32:58;21.60;97.60
12223;DHT22;6174;49.058;8.524;2022-08-02T06:35:32;21.60;97.00
12223;DHT22;6174;49.058;8.524;2022-08-02T06:38:01;21.60;95.70
12223;DHT22;6174;49.058;8.524;2022-08-02T06:40:31;21.60;95.30
12223;DHT22;6174;49.058;8.524;2022-08-02T06:43:11;21.60;95.60
12223;DHT22;6174;49.058;8.524;2022-08-02T06:45:39;21.60;95.70
12223;DHT22;6174;49.058;8.524;2022-08-02T06:48:18;21.60;95.80
12223;DHT22;6174;49.058;8.524;2022-08-02T06:50:45;21.60;96.10
12223;DHT22;6174;49.058;8.524;2022-08-02T06:53:12;21.80;96.40
12223;DHT22;6174;49.058;8.524;2022-08-02T06:55:39;21.90;96.20
12223;DHT22;6174;49.058;8.524;2022-08-02T06:58:07;22.00;96.00
12223;DHT22;6174;49.058;8.524;2022-08-02T07:00:37;22.10;95.20
12223;DHT22;6174;49.058;8.524;2022-08-02T07:03:04;22.30;95.50
12223;DHT22;6174;49.058;8.524;2022-08-02T07:40:20;23.90;90.60
12223;DHT22;6174;49.058;8.524;2022-08-02T07:42:49;23.90;89.70
12223;DHT22;6174;49.058;8.524;2022-08-02T07:45:18;23.90;88.70
12223;DHT22;6174;49.058;8.524;2022-08-02T07:47:45;23.90;87.30
12223;DHT22;6174;49.058;8.524;2022-08-02T07:50:13;23.80;87.80
12223;DHT22;6174;49.058;8.524;2022-08-02T07:52:42;23.90;88.70
12223;DHT22;6174;49.058;8.524;2022-08-02T07:55:09;23.90;89.70
12223;DHT22;6174;49.058;8.524;2022-08-02T07:57:38;23.80;88.30
12223;DHT22;6174;49.058;8.524;2022-08-02T08:00:07;23.70;87.90
12223;DHT22;6174;49.058;8.524;2022-08-02T08:02:34;23.70;89.10
12223;DHT22;6174;49.058;8.524;2022-08-02T08:05:02;23.90;87.40
12223;DHT22;6174;49.058;8.524;2022-08-02T08:07:29;24.00;86.00
12223;DHT22;6174;49.058;8.524;2022-08-02T08:09:56;23.90;86.50
12223;DHT22;6174;49.058;8.524;2022-08-02T08:12:24;23.90;86.10
12223;DHT22;6174;49.058;8.524;2022-08-02T08:14:52;23.80;88.00
12223;DHT22;6174;49.058;8.524;2022-08-02T08:17:19;23.80;86.70
12223;DHT22;6174;49.058;8.524;2022-08-02T08:19:46;23.70;87.00
12223;DHT22;6174;49.058;8.524;2022-08-02T08:22:12;23.80;87.80
12223;DHT22;6174;49.058;8.524;2022-08-02T08:24:39;23.80;86.40
12223;DHT22;6174;49.058;8.524;2022-08-02T08:27:06;23.90;87.00
12223;DHT22;6174;49.058;8.524;2022-08-02T08:29:39;23.90;86.80
12223;DHT22;6174;49.058;8.524;2022-08-02T08:32:07;23.90;85.10
12223;DHT22;6174;49.058;8.524;2022-08-02T08:34:34;23.90;85.30
12223;DHT22;6174;49.058;8.524;2022-08-02T08:37:01;24.00;85.20
12223;DHT22;6174;49.058;8.524;2022-08-02T08:39:28;24.10;84.60
12223;DHT22;6174;49.058;8.524;2022-08-02T08:41:55;24.10;85.50
12223;DHT22;6174;49.058;8.524;2022-08-02T08:44:22;24.20;87.10
12223;DHT22;6174;49.058;8.524;2022-08-02T08:46:49;24.40;84.30
12223;DHT22;6174;49.058;8.524;2022-08-02T08:49:24;24.50;82.40
12223;DHT22;6174;49.058;8.524;2022-08-02T08:51:54;24.50;83.80
12223;DHT22;6174;49.058;8.524;2022-08-02T08:54:23;24.60;82.90
12223;DHT22;6174;49.058;8.524;2022-08-02T08:56:51;24.60;83.10
12223;DHT22;6174;49.058;8.524;2022-08-02T08:59:18;24.70;81.50
12223;DHT22;6174;49.058;8.524;2022-08-02T09:01:45;24.70;82.50
12223;DHT22;6174;49.058;8.524;2022-08-02T09:04:12;24.60;81.60
12223;DHT22;6174;49.058;8.524;2022-08-02T09:06:40;24.70;81.70
12223;DHT22;6174;49.058;8.524;2022-08-02T09:09:07;24.80;81.70
12223;DHT22;6174;49.058;8.524;2022-08-02T09:11:34;24.90;81.50
12223;DHT22;6174;49.058;8.524;2022-08-02T09:14:02;25.00;80.00
12223;DHT22;6174;49.058;8.524;2022-08-02T09:16:32;25.00;78.40
12223;DHT22;6174;49.058;8.524;2022-08-02T09:18:59;25.00;80.30
12223;DHT22;6174;49.058;8.524;2022-08-02T09:21:34;25.10;79.30
12223;DHT22;6174;49.058;8.524;2022-08-02T09:24:15;25.20;78.90
12223;DHT22;6174;49.058;8.524;2022-08-02T09:26:42;25.30;78.60
12223;DHT22;6174;49.058;8.524;2022-08-02T09:29:09;25.40;76.60
12223;DHT22;6174;49.058;8.524;2022-08-02T09:31:36;25.40;74.60
12223;DHT22;6174;49.058;8.524;2022-08-02T09:34:03;25.40;76.40
12223;DHT22;6174;49.058;8.524;2022-08-02T09:36:37;25.50;76.70
12223;DHT22;6174;49.058;8.524;2022-08-02T09:39:06;25.50;76.50
12223;DHT22;6174;49.058;8.524;2022-08-02T09:41:34;25.60;76.10
12223;DHT22;6174;49.058;8.524;2022-08-02T09:44:03;25.70;76.40
12223;DHT22;6174;49.058;8.524;2022-08-02T09:46:33;25.80;76.50
12223;DHT22;6174;49.058;8.524;2022-08-02T09:49:03;25.80;74.10
12223;DHT22;6174;49.058;8.524;2022-08-02T09:51:32;25.80;73.90
12223;DHT22;6174;49.058;8.524;2022-08-02T09:54:02;25.70;72.80
12223;DHT22;6174;49.058;8.524;2022-08-02T09:56:43;25.70;73.70
12223;DHT22;6174;49.058;8.524;2022-08-02T09:59:11;25.70;74.10
12223;DHT22;6174;49.058;8.524;2022-08-02T10:01:38;25.50;72.70
12223;DHT22;6174;49.058;8.524;2022-08-02T10:04:06;25.40;74.70
12223;DHT22;6174;49.058;8.524;2022-08-02T10:06:36;25.40;76.00
12223;DHT22;6174;49.058;8.524;2022-08-02T10:09:03;25.40;73.10
12223;DHT22;6174;49.058;8.524;2022-08-02T10:11:31;25.30;74.20
12223;DHT22;6174;49.058;8.524;2022-08-02T10:14:02;25.30;75.60
12223;DHT22;6174;49.058;8.524;2022-08-02T10:16:29;25.40;74.10
12223;DHT22;6174;49.058;8.524;2022-08-02T10:18:57;25.40;72.80
12223;DHT22;6174;49.058;8.524;2022-08-02T10:21:28;25.40;72.00
12223;DHT22;6174;49.058;8.524;2022-08-02T10:24:04;25.30;72.20
12223;DHT22;6174;49.058;8.524;2022-08-02T10:26:34;25.30;73.60
12223;DHT22;6174;49.058;8.524;2022-08-02T10:29:02;25.50;74.40
12223;DHT22;6174;49.058;8.524;2022-08-02T10:31:33;25.60;73.60
12223;DHT22;6174;49.058;8.524;2022-08-02T10:34:05;25.80;72.30
12223;DHT22;6174;49.058;8.524;2022-08-02T10:36:34;25.90;72.60
12223;DHT22;6174;49.058;8.524;2022-08-02T10:39:03;26.10;72.80
12223;DHT22;6174;49.058;8.524;2022-08-02T10:41:44;26.30;73.90
12223;DHT22;6174;49.058;8.524;2022-08-02T10:44:27;26.50;71.60
12223;DHT22;6174;49.058;8.524;2022-08-02T10:49:54;27.00;70.10
12223;DHT22;6174;49.058;8.524;2022-08-02T10:52:22;27.10;69.80
12223;DHT22;6174;49.058;8.524;2022-08-02T10:54:54;27.10;67.60
12223;DHT22;6174;49.058;8.524;2022-08-02T10:57:23;27.20;66.60
12223;DHT22;6174;49.058;8.524;2022-08-02T10:59:55;27.20;66.40
12223;DHT22;6174;49.058;8.524;2022-08-02T11:02:40;27.30;66.00
12223;DHT22;6174;49.058;8.524;2022-08-02T11:05:13;27.40;66.30
12223;DHT22;6174;49.058;8.524;2022-08-02T11:07:41;27.40;65.70
12223;DHT22;6174;49.058;8.524;2022-08-02T11:10:34;27.40;64.60
12223;DHT22;6174;49.058;8.524;2022-08-02T11:13:04;27.40;64.60
12223;DHT22;6174;49.058;8.524;2022-08-02T11:15:49;27.50;64.50
12223;DHT22;6174;49.058;8.524;2022-08-02T11:18:16;27.60;64.80
12223;DHT22;6174;49.058;8.524;2022-08-02T11:20:43;27.80;62.60
12223;DHT22;6174;49.058;8.524;2022-08-02T11:23:35;27.80;61.90
12223;DHT22;6174;49.058;8.524;2022-08-02T11:26:02;27.90;60.60
12223;DHT22;6174;49.058;8.524;2022-08-02T11:28:49;27.90;60.70
12223;DHT22;6174;49.058;8.524;2022-08-02T11:31:18;28.00;59.50
12223;DHT22;6174;49.058;8.524;2022-08-02T11:33:47;28.00;60.00
12223;DHT22;6174;49.058;8.524;2022-08-02T11:36:15;28.10;59.40
12223;DHT22;6174;49.058;8.524;2022-08-02T11:38:42;28.10;58.40
12223;DHT22;6174;49.058;8.524;2022-08-02T11:41:09;28.20;57.30
12223;DHT22;6174;49.058;8.524;2022-08-02T11:43:43;28.20;58.80
12223;DHT22;6174;49.058;8.524;2022-08-02T11:46:13;28.20;59.60
12223;DHT22;6174;49.058;8.524;2022-08-02T11:48:42;28.20;58.90
12223;DHT22;6174;49.058;8.524;2022-08-02T11:51:11;28.20;58.50
12223;DHT22;6174;49.058;8.524;2022-08-02T11:53:44;28.30;58.90
12223;DHT22;6174;49.058;8.524;2022-08-02T11:56:12;28.40;58.90
12223;DHT22;6174;49.058;8.524;2022-08-02T11:58:39;28.50;57.40
12223;DHT22;6174;49.058;8.524;2022-08-02T12:01:07;28.60;58.30
12223;DHT22;6174;49.058;8.524;2022-08-02T12:03:35;28.50;58.90
12223;DHT22;6174;49.058;8.524;2022-08-02T12:06:04;28.50;57.30
12223;DHT22;6174;49.058;8.524;2022-08-02T12:08:31;28.60;58.10
12223;DHT22;6174;49.058;8.524;2022-08-02T12:11:00;28.60;58.20
12223;DHT22;6174;49.058;8.524;2022-08-02T12:13:27;28.80;58.70
12223;DHT22;6174;49.058;8.524;2022-08-02T12:15:54;28.90;58.00
12223;DHT22;6174;49.058;8.524;2022-08-02T12:18:47;28.90;56.50
12223;DHT22;6174;49.058;8.524;2022-08-02T12:21:33;28.90;57.20
12223;DHT22;6174;49.058;8.524;2022-08-02T12:24:00;29.00;56.60
12223;DHT22;6174;49.058;8.524;2022-08-02T12:26:27;29.00;57.70
12223;DHT22;6174;49.058;8.524;2022-08-02T12:28:56;29.00;57.10
12223;DHT22;6174;49.058;8.524;2022-08-02T12:31:38;29.00;55.10
12223;DHT22;6174;49.058;8.524;2022-08-02T12:34:11;29.10;57.20
12223;DHT22;6174;49.058;8.524;2022-08-02T12:36:44;29.10;56.80
12223;DHT22;6174;49.058;8.524;2022-08-02T12:39:33;29.20;55.20
12223;DHT22;6174;49.058;8.524;2022-08-02T12:42:00;29.20;54.10
12223;DHT22;6174;49.058;8.524;2022-08-02T12:44:27;29.30;55.10
12223;DHT22;6174;49.058;8.524;2022-08-02T12:47:01;29.40;54.10
12223;DHT22;6174;49.058;8.524;2022-08-02T12:49:29;29.40;53.40
12223;DHT22;6174;49.058;8.524;2022-08-02T12:51:57;29.40;55.50
12223;DHT22;6174;49.058;8.524;2022-08-02T12:54:26;29.30;54.10
12223;DHT22;6174;49.058;8.524;2022-08-02T12:56:53;29.40;54.30
12223;DHT22;6174;49.058;8.524;2022-08-02T12:59:34;29.40;54.40
12223;DHT22;6174;49.058;8.524;2022-08-02T13:02:02;29.50;53.20
12223;DHT22;6174;49.058;8.524;2022-08-02T13:04:30;29.50;54.30
12223;DHT22;6174;49.058;8.524;2022-08-02T13:06:58;29.50;53.50
12223;DHT22;6174;49.058;8.524;2022-08-02T13:09:25;29.60;54.80
12223;DHT22;6174;49.058;8.524;2022-08-02T13:11:51;29.60;54.80
12223;DHT22;6174;49.058;8.524;2022-08-02T13:14:18;29.60;54.70
12223;DHT22;6174;49.058;8.524;2022-08-02T13:16:46;29.70;54.30
12223;DHT22;6174;49.058;8.524;2022-08-02T13:19:13;29.70;55.10
12223;DHT22;6174;49.058;8.524;2022-08-02T13:21:41;29.50;54.10
12223;DHT22;6174;49.058;8.524;2022-08-02T13:24:10;29.50;53.80
12223;DHT22;6174;49.058;8.524;2022-08-02T13:26:39;29.50;54.90
12223;DHT22;6174;49.058;8.524;2022-08-02T13:29:06;29.50;55.20
12223;DHT22;6174;49.058;8.524;2022-08-02T13:31:33;29.40;56.80
12223;DHT22;6174;49.058;8.524;2022-08-02T13:34:02;29.40;56.00
12223;DHT22;6174;49.058;8.524;2022-08-02T13:36:29;29.50;56.50
12223;DHT22;6174;49.058;8.524;2022-08-02T13:38:56;29.60;56.70
12223;DHT22;6174;49.058;8.524;2022-08-02T13:41:24;29.60;55.30
12223;DHT22;6174;49.058;8.524;2022-08-02T13:43:51;29.70;54.80
12223;DHT22;6174;49.058;8.524;2022-08-02T13:46:18;29.80;54.20
12223;DHT22;6174;49.058;8.524;2022-08-02T13:48:45;29.70;54.00
12223;DHT22;6174;49.058;8.524;2022-08-02T13:51:11;29.60;55.50
12223;DHT22;6174;49.058;8.524;2022-08-02T13:53:38;29.70;54.90
12223;DHT22;6174;49.058;8.524;2022-08-02T13:56:06;29.80;53.90
12223;DHT22;6174;49.058;8.524;2022-08-02T13:58:34;29.80;53.00
12223;DHT22;6174;49.058;8.524;2022-08-02T14:01:01;29.70;53.50
12223;DHT22;6174;49.058;8.524;2022-08-02T14:03:28;29.70;53.90
12223;DHT22;6174;49.058;8.524;2022-08-02T14:05:55;29.70;53.90
12223;DHT22;6174;49.058;8.524;2022-08-02T14:08:22;29.80;54.30
12223;DHT22;6174;49.058;8.524;2022-08-02T14:10:50;29.80;53.70
12223;DHT22;6174;49.058;8.524;2022-08-02T14:13:17;29.80;53.70
12223;DHT22;6174;49.058;8.524;2022-08-02T14:15:45;29.90;52.90
12223;DHT22;6174;49.058;8.524;2022-08-02T14:18:12;30.00;53.30
12223;DHT22;6174;49.058;8.524;2022-08-02T14:20:40;30.10;53.50
12223;DHT22;6174;49.058;8.524;2022-08-02T14:23:06;30.00;52.30
12223;DHT22;6174;49.058;8.524;2022-08-02T14:25:33;29.90;52.40
12223;DHT22;6174;49.058;8.524;2022-08-02T14:28:00;29.80;53.80
12223;DHT22;6174;49.058;8.524;2022-08-02T14:30:27;29.80;52.60
12223;DHT22;6174;49.058;8.524;2022-08-02T14:32:56;30.00;51.70
12223;DHT22;6174;49.058;8.524;2022-08-02T14:35:22;30.20;52.10
12223;DHT22;6174;49.058;8.524;2022-08-02T14:37:49;30.40;51.00
12223;DHT22;6174;49.058;8.524;2022-08-02T14:40:16;30.50;51.50
12223;DHT22;6174;49.058;8.524;2022-08-02T14:42:43;30.50;51.40
12223;DHT22;6174;49.058;8.524;2022-08-02T14:45:10;30.70;51.10
12223;DHT22;6174;49.058;8.524;2022-08-02T14:47:36;30.90;50.60
12223;DHT22;6174;49.058;8.524;2022-08-02T14:50:05;31.00;49.50
12223;DHT22;6174;49.058;8.524;2022-08-02T14:52:32;31.00;49.60
12223;DHT22;6174;49.058;8.524;2022-08-02T14:54:59;31.00;48.30
12223;DHT22;6174;49.058;8.524;2022-08-02T14:57:27;30.60;49.20
12223;DHT22;6174;49.058;8.524;2022-08-02T14:59:54;30.30;49.40
12223;DHT22;6174;49.058;8.524;2022-08-02T15:02:21;30.30;48.40
12223;DHT22;6174;49.058;8.524;2022-08-02T15:04:48;30.10;50.20
12223;DHT22;6174;49.058;8.524;2022-08-02T15:07:16;30.10;50.60
12223;DHT22;6174;49.058;8.524;2022-08-02T15:09:43;30.00;49.60
12223;DHT22;6174;49.058;8.524;2022-08-02T15:12:10;29.90;50.80
12223;DHT22;6174;49.058;8.524;2022-08-02T15:14:37;29.80;50.20
12223;DHT22;6174;49.058;8.524;2022-08-02T15:17:05;29.80;49.70
12223;DHT22;6174;49.058;8.524;2022-08-02T15:19:32;29.80;49.40
12223;DHT22;6174;49.058;8.524;2022-08-02T15:21:58;29.80;50.20
12223;DHT22;6174;49.058;8.524;2022-08-02T15:24:27;29.70;49.90
12223;DHT22;6174;49.058;8.524;2022-08-02T15:26:54;29.80;50.10
12223;DHT22;6174;49.058;8.524;2022-08-02T15:29:21;29.80;50.80
12223;DHT22;6174;49.058;8.524;2022-08-02T15:31:48;29.70;50.10
12223;DHT22;6174;49.058;8.524;2022-08-02T15:34:15;29.60;50.00
12223;DHT22;6174;49.058;8.524;2022-08-02T15:36:42;29.50;50.20
12223;DHT22;6174;49.058;8.524;2022-08-02T15:39:08;29.40;51.10
12223;DHT22;6174;49.058;8.524;2022-08-02T15:41:38;29.40;50.30
12223;DHT22;6174;49.058;8.524;2022-08-02T15:44:07;29.40;50.40
12223;DHT22;6174;49.058;8.524;2022-08-02T15:46:35;29.30;51.00
12223;DHT22;6174;49.058;8.524;2022-08-02T15:49:02;29.30;51.20
12223;DHT22;6174;49.058;8.524;2022-08-02T15:51:30;29.30;49.60
12223;DHT22;6174;49.058;8.524;2022-08-02T15:53:56;29.30;50.30
12223;DHT22;6174;49.058;8.524;2022-08-02T15:56:23;29.30;50.20
12223;DHT22;6174;49.058;8.524;2022-08-02T15:58:51;29.30;50.60
12223;DHT22;6174;49.058;8.524;2022-08-02T16:01:18;29.40;50.50
12223;DHT22;6174;49.058;8.524;2022-08-02T16:03:45;29.30;50.00
12223;DHT22;6174;49.058;8.524;2022-08-02T16:06:12;29.30;51.30
12223;DHT22;6174;49.058;8.524;2022-08-02T16:08:40;29.30;50.90
12223;DHT22;6174;49.058;8.524;2022-08-02T16:11:06;29.30;51.50
12223;DHT22;6174;49.058;8.524;2022-08-02T16:13:33;29.20;50.60
12223;DHT22;6174;49.058;8.524;2022-08-02T16:16:16;29.20;50.80
12223;DHT22;6174;49.058;8.524;2022-08-02T16:18:43;29.10;50.50
12223;DHT22;6174;49.058;8.524;2022-08-02T16:21:10;29.20;50.20
12223;DHT22;6174;49.058;8.524;2022-08-02T16:23:37;29.40;49.10
12223;DHT22;6174;49.058;8.524;2022-08-02T16:26:04;29.50;49.50
12223;DHT22;6174;49.058;8.524;2022-08-02T16:28:30;29.50;48.90
12223;DHT22;6174;49.058;8.524;2022-08-02T16:30:57;29.50;49.00
12223;DHT22;6174;49.058;8.524;2022-08-02T16:33:25;29.60;48.90